sensor_id;sensor_type;location;lat;lon;timestamp;P1;durP1;ratioP1;P2;durP2;ratioP2
21802;SDS011;18591;47.080;22.214;2022-12-18T00:00:09;56.47;;;32.93;;
21802;SDS011;18591;47.080;22.214;2022-12-18T00:02:15;45.43;;;27.27;;
21802;SDS011;18591;47.080;22.214;2022-12-18T00:04:26;55.17;;;30.13;;
21802;SDS011;18591;47.080;22.214;2022-12-18T00:06:29;50.17;;;29.17;;
21802;SDS011;18591;47.080;22.214;2022-12-18T00:08:32;42.47;;;25.37;;
21802;SDS011;18591;47.080;22.214;2022-12-18T00:10:35;47.47;;;28.40;;
21802;SDS011;18591;47.080;22.214;2022-12-18T00:12:37;49.27;;;27.23;;
21802;SDS011;18591;47.080;22.214;2022-12-18T00:14:39;49.27;;;28.47;;
21802;SDS011;18591;47.080;22.214;2022-12-18T00:16:45;50.30;;;28.50;;
21802;SDS011;18591;47.080;22.214;2022-12-18T00:18:51;46.37;;;25.97;;
21802;SDS011;18591;47.080;22.214;2022-12-18T00:20:57;42.97;;;25.60;;
21802;SDS011;18591;47.080;22.214;2022-12-18T00:23:00;41.10;;;23.70;;
21802;SDS011;18591;47.080;22.214;2022-12-18T00:25:03;42.97;;;25.47;;
21802;SDS011;18591;47.080;22.214;2022-12-18T00:27:05;45.80;;;27.00;;
21802;SDS011;18591;47.080;22.214;2022-12-18T00:29:10;45.93;;;26.83;;
21802;SDS011;18591;47.080;22.214;2022-12-18T00:31:18;46.47;;;27.27;;
21802;SDS011;18591;47.080;22.214;2022-12-18T00:33:26;49.87;;;27.97;;
21802;SDS011;18591;47.080;22.214;2022-12-18T00:35:28;47.37;;;27.37;;
21802;SDS011;18591;47.080;22.214;2022-12-18T00:37:30;45.80;;;27.77;;
21802;SDS011;18591;47.080;22.214;2022-12-18T00:39:34;49.20;;;26.87;;
21802;SDS011;18591;47.080;22.214;2022-12-18T00:41:36;70.93;;;33.43;;
21802;SDS011;18591;47.080;22.214;2022-12-18T00:43:57;53.47;;;29.47;;
21802;SDS011;18591;47.080;22.214;2022-12-18T00:45:59;53.20;;;29.13;;
21802;SDS011;18591;47.080;22.214;2022-12-18T00:48:02;71.57;;;31.20;;
21802;SDS011;18591;47.080;22.214;2022-12-18T00:50:05;126.53;;;62.63;;
21802;SDS011;18591;47.080;22.214;2022-12-18T00:52:08;141.93;;;65.57;;
21802;SDS011;18591;47.080;22.214;2022-12-18T00:54:13;135.80;;;75.17;;
21802;SDS011;18591;47.080;22.214;2022-12-18T00:56:16;99.03;;;56.20;;
21802;SDS011;18591;47.080;22.214;2022-12-18T00:58:21;81.27;;;48.70;;
21802;SDS011;18591;47.080;22.214;2022-12-18T01:00:23;93.33;;;55.30;;
21802;SDS011;18591;47.080;22.214;2022-12-18T01:02:26;78.57;;;46.27;;
21802;SDS011;18591;47.080;22.214;2022-12-18T01:04:30;84.77;;;50.80;;
21802;SDS011;18591;47.080;22.214;2022-12-18T01:06:34;80.83;;;48.60;;
21802;SDS011;18591;47.080;22.214;2022-12-18T01:08:36;71.73;;;40.93;;
21802;SDS011;18591;47.080;22.214;2022-12-18T01:10:42;80.53;;;44.67;;
21802;SDS011;18591;47.080;22.214;2022-12-18T01:12:45;73.60;;;43.17;;
21802;SDS011;18591;47.080;22.214;2022-12-18T01:14:47;69.23;;;39.43;;
21802;SDS011;18591;47.080;22.214;2022-12-18T01:16:49;74.83;;;42.50;;
21802;SDS011;18591;47.080;22.214;2022-12-18T01:18:54;78.27;;;42.60;;
21802;SDS011;18591;47.080;22.214;2022-12-18T01:20:57;76.73;;;43.57;;
21802;SDS011;18591;47.080;22.214;2022-12-18T01:22:59;87.13;;;48.10;;
21802;SDS011;18591;47.080;22.214;2022-12-18T01:25:01;92.03;;;50.27;;
21802;SDS011;18591;47.080;22.214;2022-12-18T01:27:05;107.20;;;57.83;;
21802;SDS011;18591;47.080;22.214;2022-12-18T01:29:07;202.70;;;99.27;;
21802;SDS011;18591;47.080;22.214;2022-12-18T01:31:14;235.93;;;115.33;;
21802;SDS011;18591;47.080;22.214;2022-12-18T01:33:26;189.50;;;100.70;;
21802;SDS011;18591;47.080;22.214;2022-12-18T01:35:28;139.53;;;76.63;;
21802;SDS011;18591;47.080;22.214;2022-12-18T01:37:31;98.07;;;54.33;;
21802;SDS011;18591;47.080;22.214;2022-12-18T01:39:33;128.63;;;68.83;;
21802;SDS011;18591;47.080;22.214;2022-12-18T01:41:35;143.03;;;76.27;;
21802;SDS011;18591;47.080;22.214;2022-12-18T01:43:57;126.90;;;71.60;;
21802;SDS011;18591;47.080;22.214;2022-12-18T01:45:59;100.47;;;57.70;;
21802;SDS011;18591;47.080;22.214;2022-12-18T01:48:03;78.57;;;44.60;;
21802;SDS011;18591;47.080;22.214;2022-12-18T01:50:51;66.80;;;37.27;;
21802;SDS011;18591;47.080;22.214;2022-12-18T01:52:48;54.83;;;30.77;;
21802;SDS011;18591;47.080;22.214;2022-12-18T01:54:53;68.07;;;38.00;;
21802;SDS011;18591;47.080;22.214;2022-12-18T01:56:57;67.33;;;38.20;;
21802;SDS011;18591;47.080;22.214;2022-12-18T01:59:00;65.03;;;37.53;;
21802;SDS011;18591;47.080;22.214;2022-12-18T02:01:07;65.87;;;35.87;;
21802;SDS011;18591;47.080;22.214;2022-12-18T02:03:10;98.73;;;52.27;;
21802;SDS011;18591;47.080;22.214;2022-12-18T02:05:16;117.10;;;59.73;;
21802;SDS011;18591;47.080;22.214;2022-12-18T02:07:49;89.50;;;48.87;;
21802;SDS011;18591;47.080;22.214;2022-12-18T02:10:03;86.30;;;46.63;;
21802;SDS011;18591;47.080;22.214;2022-12-18T02:12:18;93.33;;;50.13;;
21802;SDS011;18591;47.080;22.214;2022-12-18T02:14:25;83.70;;;45.13;;
21802;SDS011;18591;47.080;22.214;2022-12-18T02:18:50;108.47;;;53.90;;
21802;SDS011;18591;47.080;22.214;2022-12-18T02:21:02;81.20;;;43.87;;
21802;SDS011;18591;47.080;22.214;2022-12-18T02:28:13;67.77;;;37.17;;
21802;SDS011;18591;47.080;22.214;2022-12-18T02:30:21;58.83;;;30.80;;
21802;SDS011;18591;47.080;22.214;2022-12-18T02:32:26;54.80;;;31.00;;
21802;SDS011;18591;47.080;22.214;2022-12-18T02:34:36;53.57;;;29.43;;
21802;SDS011;18591;47.080;22.214;2022-12-18T02:36:45;57.83;;;31.53;;
21802;SDS011;18591;47.080;22.214;2022-12-18T02:38:49;64.77;;;34.73;;
21802;SDS011;18591;47.080;22.214;2022-12-18T02:40:58;53.23;;;31.20;;
21802;SDS011;18591;47.080;22.214;2022-12-18T02:43:08;59.43;;;30.83;;
21802;SDS011;18591;47.080;22.214;2022-12-18T02:45:13;93.67;;;31.37;;
21802;SDS011;18591;47.080;22.214;2022-12-18T02:47:27;136.03;;;34.20;;
21802;SDS011;18591;47.080;22.214;2022-12-18T02:54:49;52.20;;;28.87;;
21802;SDS011;18591;47.080;22.214;2022-12-18T02:57:01;56.57;;;28.47;;
21802;SDS011;18591;47.080;22.214;2022-12-18T02:59:24;45.80;;;26.43;;
21802;SDS011;18591;47.080;22.214;2022-12-18T03:01:35;56.20;;;31.57;;
21802;SDS011;18591;47.080;22.214;2022-12-18T03:04:11;62.10;;;32.97;;
21802;SDS011;18591;47.080;22.214;2022-12-18T03:06:24;53.00;;;29.97;;
21802;SDS011;18591;47.080;22.214;2022-12-18T03:08:43;49.43;;;27.73;;
21802;SDS011;18591;47.080;22.214;2022-12-18T03:10:56;53.93;;;30.40;;
21802;SDS011;18591;47.080;22.214;2022-12-18T03:13:07;59.33;;;31.43;;
21802;SDS011;18591;47.080;22.214;2022-12-18T03:17:22;49.60;;;27.33;;
21802;SDS011;18591;47.080;22.214;2022-12-18T03:19:27;57.20;;;30.73;;
21802;SDS011;18591;47.080;22.214;2022-12-18T03:21:38;55.43;;;31.57;;
21802;SDS011;18591;47.080;22.214;2022-12-18T03:23:46;57.57;;;31.00;;
21802;SDS011;18591;47.080;22.214;2022-12-18T03:25:52;67.37;;;36.70;;
21802;SDS011;18591;47.080;22.214;2022-12-18T03:28:05;79.83;;;43.37;;
21802;SDS011;18591;47.080;22.214;2022-12-18T03:30:13;55.57;;;32.87;;
21802;SDS011;18591;47.080;22.214;2022-12-18T03:32:23;67.27;;;34.63;;
21802;SDS011;18591;47.080;22.214;2022-12-18T03:34:33;67.70;;;36.83;;
21802;SDS011;18591;47.080;22.214;2022-12-18T03:36:41;57.53;;;32.67;;
21802;SDS011;18591;47.080;22.214;2022-12-18T03:38:44;61.00;;;31.60;;
21802;SDS011;18591;47.080;22.214;2022-12-18T03:43:24;56.27;;;30.90;;
21802;SDS011;18591;47.080;22.214;2022-12-18T03:45:41;68.37;;;36.53;;
21802;SDS011;18591;47.080;22.214;2022-12-18T03:48:02;61.67;;;31.23;;
21802;SDS011;18591;47.080;22.214;2022-12-18T03:50:27;57.93;;;29.37;;
21802;SDS011;18591;47.080;22.214;2022-12-18T03:55:02;87.73;;;46.83;;
21802;SDS011;18591;47.080;22.214;2022-12-18T03:57:18;80.37;;;43.97;;
21802;SDS011;18591;47.080;22.214;2022-12-18T03:59:27;61.27;;;32.87;;
21802;SDS011;18591;47.080;22.214;2022-12-18T04:01:35;60.50;;;31.40;;
21802;SDS011;18591;47.080;22.214;2022-12-18T04:03:46;53.50;;;29.47;;
21802;SDS011;18591;47.080;22.214;2022-12-18T04:05:54;52.27;;;28.40;;
21802;SDS011;18591;47.080;22.214;2022-12-18T04:07:58;50.57;;;28.50;;
21802;SDS011;18591;47.080;22.214;2022-12-18T04:10:03;49.00;;;28.20;;
21802;SDS011;18591;47.080;22.214;2022-12-18T04:12:08;50.83;;;27.97;;
21802;SDS011;18591;47.080;22.214;2022-12-18T04:14:11;49.03;;;26.67;;
21802;SDS011;18591;47.080;22.214;2022-12-18T04:16:18;58.70;;;32.17;;
21802;SDS011;18591;47.080;22.214;2022-12-18T04:18:24;62.03;;;32.53;;
21802;SDS011;18591;47.080;22.214;2022-12-18T04:20:28;58.03;;;30.90;;
21802;SDS011;18591;47.080;22.214;2022-12-18T04:22:30;63.07;;;33.40;;
21802;SDS011;18591;47.080;22.214;2022-12-18T04:24:33;56.97;;;31.03;;
21802;SDS011;18591;47.080;22.214;2022-12-18T04:26:45;54.90;;;28.97;;
21802;SDS011;18591;47.080;22.214;2022-12-18T04:28:50;51.37;;;27.53;;
21802;SDS011;18591;47.080;22.214;2022-12-18T04:30:52;47.43;;;26.33;;
21802;SDS011;18591;47.080;22.214;2022-12-18T04:32:55;46.70;;;25.20;;
21802;SDS011;18591;47.080;22.214;2022-12-18T04:34:58;47.13;;;26.57;;
21802;SDS011;18591;47.080;22.214;2022-12-18T04:37:00;49.20;;;26.07;;
21802;SDS011;18591;47.080;22.214;2022-12-18T04:39:04;49.57;;;26.80;;
21802;SDS011;18591;47.080;22.214;2022-12-18T04:41:07;44.87;;;24.20;;
21802;SDS011;18591;47.080;22.214;2022-12-18T04:43:10;48.70;;;25.93;;
21802;SDS011;18591;47.080;22.214;2022-12-18T04:45:13;45.27;;;24.80;;
21802;SDS011;18591;47.080;22.214;2022-12-18T04:47:15;48.17;;;26.33;;
21802;SDS011;18591;47.080;22.214;2022-12-18T04:49:17;43.27;;;22.50;;
21802;SDS011;18591;47.080;22.214;2022-12-18T04:51:20;43.63;;;22.67;;
21802;SDS011;18591;47.080;22.214;2022-12-18T04:53:27;44.93;;;23.77;;
21802;SDS011;18591;47.080;22.214;2022-12-18T04:55:29;45.83;;;23.37;;
21802;SDS011;18591;47.080;22.214;2022-12-18T04:57:31;49.57;;;26.10;;
21802;SDS011;18591;47.080;22.214;2022-12-18T04:59:34;46.00;;;25.30;;
21802;SDS011;18591;47.080;22.214;2022-12-18T05:01:38;48.00;;;26.23;;
21802;SDS011;18591;47.080;22.214;2022-12-18T05:03:40;50.57;;;28.37;;
21802;SDS011;18591;47.080;22.214;2022-12-18T05:05:44;53.80;;;28.37;;
21802;SDS011;18591;47.080;22.214;2022-12-18T05:07:46;45.77;;;26.83;;
21802;SDS011;18591;47.080;22.214;2022-12-18T05:09:48;50.33;;;27.10;;
21802;SDS011;18591;47.080;22.214;2022-12-18T05:11:53;45.40;;;25.87;;
21802;SDS011;18591;47.080;22.214;2022-12-18T05:13:55;49.17;;;26.53;;
21802;SDS011;18591;47.080;22.214;2022-12-18T05:15:57;47.90;;;25.37;;
21802;SDS011;18591;47.080;22.214;2022-12-18T05:18:00;46.83;;;24.57;;
21802;SDS011;18591;47.080;22.214;2022-12-18T05:20:03;45.53;;;25.20;;
21802;SDS011;18591;47.080;22.214;2022-12-18T05:22:06;53.23;;;29.30;;
21802;SDS011;18591;47.080;22.214;2022-12-18T05:24:08;51.70;;;27.87;;
21802;SDS011;18591;47.080;22.214;2022-12-18T05:26:12;44.23;;;24.47;;
21802;SDS011;18591;47.080;22.214;2022-12-18T05:28:18;48.67;;;26.33;;
21802;SDS011;18591;47.080;22.214;2022-12-18T05:30:21;48.13;;;24.70;;
21802;SDS011;18591;47.080;22.214;2022-12-18T05:32:24;50.60;;;25.57;;
21802;SDS011;18591;47.080;22.214;2022-12-18T05:34:26;46.57;;;25.43;;
21802;SDS011;18591;47.080;22.214;2022-12-18T05:36:28;51.23;;;25.43;;
21802;SDS011;18591;47.080;22.214;2022-12-18T05:38:31;46.93;;;24.90;;
21802;SDS011;18591;47.080;22.214;2022-12-18T05:40:34;43.57;;;22.53;;
21802;SDS011;18591;47.080;22.214;2022-12-18T05:42:38;55.53;;;24.50;;
21802;SDS011;18591;47.080;22.214;2022-12-18T05:44:40;46.80;;;24.00;;
21802;SDS011;18591;47.080;22.214;2022-12-18T05:46:42;48.57;;;24.37;;
21802;SDS011;18591;47.080;22.214;2022-12-18T05:48:45;43.90;;;23.40;;
21802;SDS011;18591;47.080;22.214;2022-12-18T05:50:48;41.47;;;22.07;;
21802;SDS011;18591;47.080;22.214;2022-12-18T05:52:51;49.37;;;23.87;;
21802;SDS011;18591;47.080;22.214;2022-12-18T05:54:54;47.40;;;24.03;;
21802;SDS011;18591;47.080;22.214;2022-12-18T05:56:56;44.93;;;23.67;;
21802;SDS011;18591;47.080;22.214;2022-12-18T05:58:59;51.37;;;26.70;;
21802;SDS011;18591;47.080;22.214;2022-12-18T06:01:08;50.83;;;27.47;;
21802;SDS011;18591;47.080;22.214;2022-12-18T06:03:15;49.63;;;27.03;;
21802;SDS011;18591;47.080;22.214;2022-12-18T06:05:18;51.53;;;29.17;;
21802;SDS011;18591;47.080;22.214;2022-12-18T06:07:20;50.97;;;26.83;;
21802;SDS011;18591;47.080;22.214;2022-12-18T06:09:22;48.57;;;27.90;;
21802;SDS011;18591;47.080;22.214;2022-12-18T06:11:25;53.57;;;28.77;;
21802;SDS011;18591;47.080;22.214;2022-12-18T06:13:32;54.23;;;27.77;;
21802;SDS011;18591;47.080;22.214;2022-12-18T06:15:38;52.13;;;28.17;;
21802;SDS011;18591;47.080;22.214;2022-12-18T06:17:40;57.70;;;29.73;;
21802;SDS011;18591;47.080;22.214;2022-12-18T06:19:42;52.80;;;27.53;;
21802;SDS011;18591;47.080;22.214;2022-12-18T06:21:45;50.17;;;25.90;;
21802;SDS011;18591;47.080;22.214;2022-12-18T06:23:47;59.43;;;30.77;;
21802;SDS011;18591;47.080;22.214;2022-12-18T06:25:49;54.73;;;29.07;;
21802;SDS011;18591;47.080;22.214;2022-12-18T06:27:52;47.13;;;25.63;;
21802;SDS011;18591;47.080;22.214;2022-12-18T06:29:54;57.13;;;29.50;;
21802;SDS011;18591;47.080;22.214;2022-12-18T06:31:56;52.07;;;28.30;;
21802;SDS011;18591;47.080;22.214;2022-12-18T06:33:59;55.37;;;30.17;;
21802;SDS011;18591;47.080;22.214;2022-12-18T06:36:05;49.33;;;26.10;;
21802;SDS011;18591;47.080;22.214;2022-12-18T06:38:12;90.27;;;40.73;;
21802;SDS011;18591;47.080;22.214;2022-12-18T06:40:15;71.47;;;37.57;;
21802;SDS011;18591;47.080;22.214;2022-12-18T06:42:17;62.47;;;31.43;;
21802;SDS011;18591;47.080;22.214;2022-12-18T06:44:22;76.00;;;36.83;;
21802;SDS011;18591;47.080;22.214;2022-12-18T06:46:24;103.67;;;49.53;;
21802;SDS011;18591;47.080;22.214;2022-12-18T06:48:26;144.20;;;62.77;;
21802;SDS011;18591;47.080;22.214;2022-12-18T06:50:29;139.23;;;62.30;;
21802;SDS011;18591;47.080;22.214;2022-12-18T06:52:32;114.57;;;52.93;;
21802;SDS011;18591;47.080;22.214;2022-12-18T06:54:35;104.67;;;49.03;;
21802;SDS011;18591;47.080;22.214;2022-12-18T06:56:37;85.90;;;42.57;;
21802;SDS011;18591;47.080;22.214;2022-12-18T06:58:39;87.03;;;44.07;;
21802;SDS011;18591;47.080;22.214;2022-12-18T07:00:42;73.60;;;38.90;;
21802;SDS011;18591;47.080;22.214;2022-12-18T07:02:46;72.50;;;37.33;;
21802;SDS011;18591;47.080;22.214;2022-12-18T07:04:48;67.30;;;34.73;;
21802;SDS011;18591;47.080;22.214;2022-12-18T07:06:50;65.33;;;35.87;;
21802;SDS011;18591;47.080;22.214;2022-12-18T07:08:53;67.83;;;36.10;;
21802;SDS011;18591;47.080;22.214;2022-12-18T07:10:55;60.20;;;32.53;;
21802;SDS011;18591;47.080;22.214;2022-12-18T07:12:58;64.17;;;31.37;;
21802;SDS011;18591;47.080;22.214;2022-12-18T07:15:00;68.70;;;33.80;;
21802;SDS011;18591;47.080;22.214;2022-12-18T07:17:03;60.13;;;33.00;;
21802;SDS011;18591;47.080;22.214;2022-12-18T07:19:07;65.17;;;33.23;;
21802;SDS011;18591;47.080;22.214;2022-12-18T07:21:10;59.90;;;31.20;;
21802;SDS011;18591;47.080;22.214;2022-12-18T07:23:14;55.40;;;29.20;;
21802;SDS011;18591;47.080;22.214;2022-12-18T07:25:17;54.67;;;28.67;;
21802;SDS011;18591;47.080;22.214;2022-12-18T07:27:19;59.93;;;31.67;;
21802;SDS011;18591;47.080;22.214;2022-12-18T07:29:21;64.57;;;32.40;;
21802;SDS011;18591;47.080;22.214;2022-12-18T07:31:24;61.70;;;31.83;;
21802;SDS011;18591;47.080;22.214;2022-12-18T07:33:27;68.83;;;35.03;;
21802;SDS011;18591;47.080;22.214;2022-12-18T07:35:29;101.40;;;44.63;;
21802;SDS011;18591;47.080;22.214;2022-12-18T07:37:31;120.93;;;48.43;;
21802;SDS011;18591;47.080;22.214;2022-12-18T07:39:34;118.37;;;50.60;;
21802;SDS011;18591;47.080;22.214;2022-12-18T07:41:36;101.93;;;48.37;;
21802;SDS011;18591;47.080;22.214;2022-12-18T07:43:44;200.07;;;83.73;;
21802;SDS011;18591;47.080;22.214;2022-12-18T07:45:49;140.27;;;65.10;;
21802;SDS011;18591;47.080;22.214;2022-12-18T07:47:52;112.97;;;54.87;;
21802;SDS011;18591;47.080;22.214;2022-12-18T07:49:54;141.03;;;64.43;;
21802;SDS011;18591;47.080;22.214;2022-12-18T07:51:57;140.97;;;66.97;;
21802;SDS011;18591;47.080;22.214;2022-12-18T07:53:59;112.33;;;56.07;;
21802;SDS011;18591;47.080;22.214;2022-12-18T07:56:06;106.20;;;54.90;;
21802;SDS011;18591;47.080;22.214;2022-12-18T07:58:30;92.30;;;48.60;;
21802;SDS011;18591;47.080;22.214;2022-12-18T08:00:32;96.47;;;51.67;;
21802;SDS011;18591;47.080;22.214;2022-12-18T08:02:35;103.03;;;54.57;;
21802;SDS011;18591;47.080;22.214;2022-12-18T08:04:38;108.40;;;54.20;;
21802;SDS011;18591;47.080;22.214;2022-12-18T08:06:40;88.40;;;48.13;;
21802;SDS011;18591;47.080;22.214;2022-12-18T08:08:48;85.80;;;45.37;;
21802;SDS011;18591;47.080;22.214;2022-12-18T08:10:50;83.67;;;44.53;;
21802;SDS011;18591;47.080;22.214;2022-12-18T08:12:53;77.10;;;40.53;;
21802;SDS011;18591;47.080;22.214;2022-12-18T08:14:55;72.90;;;40.17;;
21802;SDS011;18591;47.080;22.214;2022-12-18T08:16:57;94.80;;;47.03;;
21802;SDS011;18591;47.080;22.214;2022-12-18T08:19:00;109.40;;;54.10;;
21802;SDS011;18591;47.080;22.214;2022-12-18T08:21:12;111.40;;;56.73;;
21802;SDS011;18591;47.080;22.214;2022-12-18T08:23:15;94.43;;;49.67;;
21802;SDS011;18591;47.080;22.214;2022-12-18T08:25:16;89.30;;;44.30;;
21802;SDS011;18591;47.080;22.214;2022-12-18T08:27:19;108.90;;;54.37;;
21802;SDS011;18591;47.080;22.214;2022-12-18T08:29:30;89.00;;;47.40;;
21802;SDS011;18591;47.080;22.214;2022-12-18T08:31:33;87.40;;;46.40;;
21802;SDS011;18591;47.080;22.214;2022-12-18T08:33:36;80.27;;;42.37;;
21802;SDS011;18591;47.080;22.214;2022-12-18T08:35:39;76.73;;;41.97;;
21802;SDS011;18591;47.080;22.214;2022-12-18T08:37:46;84.47;;;44.50;;
21802;SDS011;18591;47.080;22.214;2022-12-18T08:42:10;75.40;;;40.53;;
21802;SDS011;18591;47.080;22.214;2022-12-18T08:44:33;79.27;;;40.57;;
21802;SDS011;18591;47.080;22.214;2022-12-18T08:46:40;73.43;;;38.17;;
21802;SDS011;18591;47.080;22.214;2022-12-18T08:48:43;71.77;;;38.20;;
21802;SDS011;18591;47.080;22.214;2022-12-18T08:50:55;79.50;;;42.80;;
21802;SDS011;18591;47.080;22.214;2022-12-18T08:52:58;78.90;;;40.63;;
21802;SDS011;18591;47.080;22.214;2022-12-18T08:55:00;69.20;;;39.23;;
21802;SDS011;18591;47.080;22.214;2022-12-18T08:57:02;70.33;;;37.50;;
21802;SDS011;18591;47.080;22.214;2022-12-18T08:59:05;70.03;;;36.37;;
21802;SDS011;18591;47.080;22.214;2022-12-18T09:01:08;68.73;;;37.50;;
21802;SDS011;18591;47.080;22.214;2022-12-18T09:03:15;70.60;;;37.43;;
21802;SDS011;18591;47.080;22.214;2022-12-18T09:05:20;60.43;;;32.77;;
21802;SDS011;18591;47.080;22.214;2022-12-18T09:07:22;60.80;;;31.97;;
21802;SDS011;18591;47.080;22.214;2022-12-18T09:09:24;62.33;;;32.83;;
21802;SDS011;18591;47.080;22.214;2022-12-18T09:11:27;67.37;;;32.50;;
21802;SDS011;18591;47.080;22.214;2022-12-18T09:13:30;66.20;;;34.00;;
21802;SDS011;18591;47.080;22.214;2022-12-18T09:15:32;65.67;;;33.33;;
21802;SDS011;18591;47.080;22.214;2022-12-18T09:17:34;67.87;;;31.13;;
21802;SDS011;18591;47.080;22.214;2022-12-18T09:19:38;61.30;;;30.57;;
21802;SDS011;18591;47.080;22.214;2022-12-18T09:21:40;60.47;;;29.40;;
21802;SDS011;18591;47.080;22.214;2022-12-18T09:23:51;65.47;;;31.03;;
21802;SDS011;18591;47.080;22.214;2022-12-18T09:25:58;66.13;;;33.03;;
21802;SDS011;18591;47.080;22.214;2022-12-18T09:28:04;58.00;;;33.03;;
21802;SDS011;18591;47.080;22.214;2022-12-18T09:30:16;60.83;;;31.40;;
21802;SDS011;18591;47.080;22.214;2022-12-18T09:32:21;62.10;;;31.60;;
21802;SDS011;18591;47.080;22.214;2022-12-18T09:34:23;63.20;;;28.73;;
21802;SDS011;18591;47.080;22.214;2022-12-18T09:36:25;65.27;;;30.33;;
21802;SDS011;18591;47.080;22.214;2022-12-18T09:38:27;64.97;;;31.17;;
21802;SDS011;18591;47.080;22.214;2022-12-18T09:40:36;60.70;;;30.03;;
21802;SDS011;18591;47.080;22.214;2022-12-18T09:42:45;65.97;;;32.43;;
21802;SDS011;18591;47.080;22.214;2022-12-18T09:44:53;60.47;;;29.03;;
21802;SDS011;18591;47.080;22.214;2022-12-18T09:49:40;61.17;;;29.33;;
21802;SDS011;18591;47.080;22.214;2022-12-18T09:51:49;55.33;;;28.07;;
21802;SDS011;18591;47.080;22.214;2022-12-18T09:54:01;51.63;;;26.13;;
21802;SDS011;18591;47.080;22.214;2022-12-18T09:56:10;56.37;;;26.97;;
21802;SDS011;18591;47.080;22.214;2022-12-18T10:00:43;55.93;;;28.97;;
21802;SDS011;18591;47.080;22.214;2022-12-18T10:02:46;55.27;;;28.20;;
21802;SDS011;18591;47.080;22.214;2022-12-18T10:04:55;52.57;;;26.17;;
21802;SDS011;18591;47.080;22.214;2022-12-18T10:07:21;54.43;;;27.33;;
21802;SDS011;18591;47.080;22.214;2022-12-18T10:09:41;51.80;;;25.93;;
21802;SDS011;18591;47.080;22.214;2022-12-18T10:16:29;61.20;;;26.63;;
21802;SDS011;18591;47.080;22.214;2022-12-18T10:20:44;58.37;;;27.33;;
21802;SDS011;18591;47.080;22.214;2022-12-18T10:27:26;56.23;;;28.93;;
21802;SDS011;18591;47.080;22.214;2022-12-18T10:29:31;58.63;;;27.93;;
21802;SDS011;18591;47.080;22.214;2022-12-18T10:31:36;58.73;;;29.37;;
21802;SDS011;18591;47.080;22.214;2022-12-18T10:33:38;53.87;;;27.50;;
21802;SDS011;18591;47.080;22.214;2022-12-18T10:35:40;58.43;;;27.27;;
21802;SDS011;18591;47.080;22.214;2022-12-18T10:38:04;59.60;;;28.57;;
21802;SDS011;18591;47.080;22.214;2022-12-18T10:40:15;57.47;;;29.23;;
21802;SDS011;18591;47.080;22.214;2022-12-18T10:42:22;58.80;;;29.03;;
21802;SDS011;18591;47.080;22.214;2022-12-18T10:44:24;53.47;;;27.70;;
21802;SDS011;18591;47.080;22.214;2022-12-18T10:46:28;59.73;;;29.23;;
21802;SDS011;18591;47.080;22.214;2022-12-18T10:48:30;56.27;;;26.77;;
21802;SDS011;18591;47.080;22.214;2022-12-18T10:50:34;65.47;;;30.03;;
21802;SDS011;18591;47.080;22.214;2022-12-18T10:53:00;55.50;;;28.13;;
21802;SDS011;18591;47.080;22.214;2022-12-18T10:55:06;57.53;;;27.57;;
21802;SDS011;18591;47.080;22.214;2022-12-18T10:57:34;54.93;;;27.87;;
21802;SDS011;18591;47.080;22.214;2022-12-18T10:59:49;56.07;;;27.23;;
21802;SDS011;18591;47.080;22.214;2022-12-18T11:01:54;61.20;;;29.67;;
21802;SDS011;18591;47.080;22.214;2022-12-18T11:04:01;63.30;;;31.33;;
21802;SDS011;18591;47.080;22.214;2022-12-18T11:06:14;65.10;;;30.13;;
21802;SDS011;18591;47.080;22.214;2022-12-18T11:11:20;49.97;;;25.07;;
21802;SDS011;18591;47.080;22.214;2022-12-18T11:13:24;50.00;;;25.03;;
21802;SDS011;18591;47.080;22.214;2022-12-18T11:15:29;58.37;;;27.47;;
21802;SDS011;18591;47.080;22.214;2022-12-18T11:17:33;63.43;;;29.60;;
21802;SDS011;18591;47.080;22.214;2022-12-18T11:19:38;58.13;;;28.73;;
21802;SDS011;18591;47.080;22.214;2022-12-18T11:21:42;60.07;;;27.87;;
21802;SDS011;18591;47.080;22.214;2022-12-18T11:23:51;49.53;;;24.83;;
21802;SDS011;18591;47.080;22.214;2022-12-18T11:25:59;57.63;;;26.23;;
21802;SDS011;18591;47.080;22.214;2022-12-18T11:28:05;60.17;;;26.73;;
21802;SDS011;18591;47.080;22.214;2022-12-18T11:30:36;65.60;;;33.77;;
21802;SDS011;18591;47.080;22.214;2022-12-18T11:32:45;64.20;;;32.60;;
21802;SDS011;18591;47.080;22.214;2022-12-18T11:37:18;60.50;;;29.73;;
21802;SDS011;18591;47.080;22.214;2022-12-18T11:39:24;53.27;;;27.60;;
21802;SDS011;18591;47.080;22.214;2022-12-18T11:41:32;58.80;;;29.63;;
21802;SDS011;18591;47.080;22.214;2022-12-18T11:43:59;54.17;;;27.07;;
21802;SDS011;18591;47.080;22.214;2022-12-18T11:48:17;46.90;;;24.67;;
21802;SDS011;18591;47.080;22.214;2022-12-18T11:50:33;51.50;;;26.53;;
21802;SDS011;18591;47.080;22.214;2022-12-18T11:52:39;50.07;;;24.90;;
21802;SDS011;18591;47.080;22.214;2022-12-18T11:54:44;53.27;;;27.43;;
21802;SDS011;18591;47.080;22.214;2022-12-18T11:56:58;64.13;;;30.73;;
21802;SDS011;18591;47.080;22.214;2022-12-18T12:06:13;78.93;;;39.57;;
21802;SDS011;18591;47.080;22.214;2022-12-18T12:11:10;59.87;;;29.83;;
21802;SDS011;18591;47.080;22.214;2022-12-18T12:20:08;58.37;;;28.13;;
21802;SDS011;18591;47.080;22.214;2022-12-18T12:22:21;61.90;;;30.70;;
21802;SDS011;18591;47.080;22.214;2022-12-18T12:38:15;58.13;;;28.17;;
21802;SDS011;18591;47.080;22.214;2022-12-18T12:40:27;58.27;;;29.57;;
21802;SDS011;18591;47.080;22.214;2022-12-18T12:42:58;68.73;;;32.70;;
21802;SDS011;18591;47.080;22.214;2022-12-18T12:45:34;58.43;;;28.83;;
21802;SDS011;18591;47.080;22.214;2022-12-18T12:47:42;59.07;;;29.07;;
21802;SDS011;18591;47.080;22.214;2022-12-18T12:49:47;53.27;;;26.90;;
21802;SDS011;18591;47.080;22.214;2022-12-18T12:51:54;56.00;;;28.27;;
21802;SDS011;18591;47.080;22.214;2022-12-18T12:54:12;57.80;;;29.30;;
21802;SDS011;18591;47.080;22.214;2022-12-18T12:56:22;57.27;;;29.87;;
21802;SDS011;18591;47.080;22.214;2022-12-18T12:58:33;53.43;;;28.13;;
21802;SDS011;18591;47.080;22.214;2022-12-18T13:00:56;61.80;;;29.67;;
21802;SDS011;18591;47.080;22.214;2022-12-18T13:03:22;55.83;;;28.43;;
21802;SDS011;18591;47.080;22.214;2022-12-18T13:07:54;54.40;;;28.23;;
21802;SDS011;18591;47.080;22.214;2022-12-18T13:10:14;55.60;;;26.67;;
21802;SDS011;18591;47.080;22.214;2022-12-18T13:12:27;61.30;;;26.83;;
21802;SDS011;18591;47.080;22.214;2022-12-18T13:14:48;53.47;;;25.37;;
21802;SDS011;18591;47.080;22.214;2022-12-18T13:16:51;59.90;;;29.50;;
21802;SDS011;18591;47.080;22.214;2022-12-18T13:18:57;61.17;;;30.73;;
21802;SDS011;18591;47.080;22.214;2022-12-18T13:25:31;56.93;;;27.43;;
21802;SDS011;18591;47.080;22.214;2022-12-18T13:29:47;53.57;;;26.03;;
21802;SDS011;18591;47.080;22.214;2022-12-18T13:33:52;65.33;;;32.63;;
21802;SDS011;18591;47.080;22.214;2022-12-18T13:36:28;80.17;;;37.80;;